sensor_id;sensor_type;location;lat;lon;timestamp;P1;durP1;ratioP1;P2;durP2;ratioP2
53959;SDS011;39866;48.638;-2.020;2024-03-29T00:00:57;1.67;;;0.90;;
53959;SDS011;39866;48.638;-2.020;2024-03-29T00:03:23;1.92;;;0.98;;
53959;SDS011;39866;48.638;-2.020;2024-03-29T00:05:49;2.28;;;0.88;;
53959;SDS011;39866;48.638;-2.020;2024-03-29T00:08:14;1.40;;;0.68;;
53959;SDS011;39866;48.638;-2.020;2024-03-29T00:10:39;2.53;;;0.70;;
53959;SDS011;39866;48.638;-2.020;2024-03-29T00:13:05;0.98;;;0.40;;
53959;SDS011;39866;48.638;-2.020;2024-03-29T00:15:33;1.70;;;0.70;;
53959;SDS011;39866;48.638;-2.020;2024-03-29T00:17:59;0.93;;;0.40;;
53959;SDS011;39866;48.638;-2.020;2024-03-29T00:20:25;3.08;;;0.95;;
53959;SDS011;39866;48.638;-2.020;2024-03-29T00:22:50;0.93;;;0.40;;
53959;SDS011;39866;48.638;-2.020;2024-03-29T00:25:16;0.75;;;0.40;;
53959;SDS011;39866;48.638;-2.020;2024-03-29T00:27:42;1.50;;;0.57;;
53959;SDS011;39866;48.638;-2.020;2024-03-29T00:30:09;1.48;;;0.52;;
53959;SDS011;39866;48.638;-2.020;2024-03-29T00:32:35;1.67;;;0.80;;
53959;SDS011;39866;48.638;-2.020;2024-03-29T00:35:00;2.22;;;0.70;;
53959;SDS011;39866;48.638;-2.020;2024-03-29T00:37:25;1.65;;;0.60;;
53959;SDS011;39866;48.638;-2.020;2024-03-29T00:39:51;1.40;;;0.47;;
53959;SDS011;39866;48.638;-2.020;2024-03-29T00:42:16;2.83;;;0.80;;
53959;SDS011;39866;48.638;-2.020;2024-03-29T00:44:42;1.52;;;0.65;;
53959;SDS011;39866;48.638;-2.020;2024-03-29T00:47:08;1.70;;;0.57;;
53959;SDS011;39866;48.638;-2.020;2024-03-29T00:49:34;1.90;;;0.65;;
53959;SDS011;39866;48.638;-2.020;2024-03-29T00:52:00;2.67;;;0.90;;
53959;SDS011;39866;48.638;-2.020;2024-03-29T00:54:27;1.58;;;0.60;;
53959;SDS011;39866;48.638;-2.020;2024-03-29T00:56:52;2.10;;;0.70;;
53959;SDS011;39866;48.638;-2.020;2024-03-29T00:59:18;1.65;;;0.60;;
53959;SDS011;39866;48.638;-2.020;2024-03-29T01:01:43;1.30;;;0.40;;
53959;SDS011;39866;48.638;-2.020;2024-03-29T01:04:09;2.13;;;0.70;;
53959;SDS011;39866;48.638;-2.020;2024-03-29T01:06:35;0.98;;;0.40;;
53959;SDS011;39866;48.638;-2.020;2024-03-29T01:09:00;1.95;;;0.63;;
53959;SDS011;39866;48.638;-2.020;2024-03-29T01:11:28;2.08;;;0.75;;
53959;SDS011;39866;48.638;-2.020;2024-03-29T01:13:53;2.13;;;0.63;;
53959;SDS011;39866;48.638;-2.020;2024-03-29T01:16:19;1.55;;;0.52;;
53959;SDS011;39866;48.638;-2.020;2024-03-29T01:18:44;1.65;;;0.68;;
53959;SDS011;39866;48.638;-2.020;2024-03-29T01:21:11;1.80;;;0.60;;
53959;SDS011;39866;48.638;-2.020;2024-03-29T01:23:37;2.33;;;0.77;;
53959;SDS011;39866;48.638;-2.020;2024-03-29T01:26:02;1.85;;;0.77;;
53959;SDS011;39866;48.638;-2.020;2024-03-29T01:28:29;2.08;;;0.60;;
53959;SDS011;39866;48.638;-2.020;2024-03-29T01:30:54;2.42;;;0.90;;
53959;SDS011;39866;48.638;-2.020;2024-03-29T01:33:20;1.45;;;0.60;;
53959;SDS011;39866;48.638;-2.020;2024-03-29T01:35:46;1.63;;;0.60;;
53959;SDS011;39866;48.638;-2.020;2024-03-29T01:38:11;2.55;;;0.90;;
53959;SDS011;39866;48.638;-2.020;2024-03-29T01:40:37;1.38;;;0.52;;
53959;SDS011;39866;48.638;-2.020;2024-03-29T01:43:02;1.15;;;0.60;;
53959;SDS011;39866;48.638;-2.020;2024-03-29T01:45:28;1.58;;;0.60;;
53959;SDS011;39866;48.638;-2.020;2024-03-29T01:47:55;1.90;;;0.77;;
53959;SDS011;39866;48.638;-2.020;2024-03-29T01:50:20;1.67;;;0.60;;
53959;SDS011;39866;48.638;-2.020;2024-03-29T01:52:46;1.88;;;0.68;;
53959;SDS011;39866;48.638;-2.020;2024-03-29T01:55:12;1.75;;;0.90;;
53959;SDS011;39866;48.638;-2.020;2024-03-29T01:57:37;0.98;;;0.63;;
53959;SDS011;39866;48.638;-2.020;2024-03-29T02:00:05;1.70;;;0.75;;
53959;SDS011;39866;48.638;-2.020;2024-03-29T02:02:32;1.10;;;0.60;;
53959;SDS011;39866;48.638;-2.020;2024-03-29T02:04:58;2.20;;;0.80;;
53959;SDS011;39866;48.638;-2.020;2024-03-29T02:07:24;1.73;;;0.70;;
53959;SDS011;39866;48.638;-2.020;2024-03-29T02:09:50;2.78;;;1.00;;
53959;SDS011;39866;48.638;-2.020;2024-03-29T02:12:15;2.20;;;0.80;;
53959;SDS011;39866;48.638;-2.020;2024-03-29T02:14:41;1.35;;;0.70;;
53959;SDS011;39866;48.638;-2.020;2024-03-29T02:17:07;2.38;;;0.82;;
53959;SDS011;39866;48.638;-2.020;2024-03-29T02:19:33;1.13;;;0.68;;
53959;SDS011;39866;48.638;-2.020;2024-03-29T02:21:59;2.17;;;0.82;;
53959;SDS011;39866;48.638;-2.020;2024-03-29T02:24:26;1.70;;;0.80;;
53959;SDS011;39866;48.638;-2.020;2024-03-29T02:26:52;1.20;;;0.68;;
53959;SDS011;39866;48.638;-2.020;2024-03-29T02:29:20;1.85;;;0.80;;
53959;SDS011;39866;48.638;-2.020;2024-03-29T02:31:45;2.25;;;0.80;;
53959;SDS011;39866;48.638;-2.020;2024-03-29T02:34:10;0.90;;;0.60;;
53959;SDS011;39866;48.638;-2.020;2024-03-29T02:36:36;0.95;;;0.80;;
53959;SDS011;39866;48.638;-2.020;2024-03-29T02:39:02;1.15;;;0.80;;
53959;SDS011;39866;48.638;-2.020;2024-03-29T02:41:27;1.45;;;0.77;;
53959;SDS011;39866;48.638;-2.020;2024-03-29T02:43:55;1.98;;;0.98;;
53959;SDS011;39866;48.638;-2.020;2024-03-29T02:46:20;1.58;;;1.05;;
53959;SDS011;39866;48.638;-2.020;2024-03-29T02:48:46;1.50;;;0.80;;
53959;SDS011;39866;48.638;-2.020;2024-03-29T02:51:11;1.88;;;0.93;;
53959;SDS011;39866;48.638;-2.020;2024-03-29T02:53:37;1.80;;;0.93;;
53959;SDS011;39866;48.638;-2.020;2024-03-29T02:56:03;2.22;;;1.17;;
53959;SDS011;39866;48.638;-2.020;2024-03-29T02:58:29;2.72;;;1.00;;
53959;SDS011;39866;48.638;-2.020;2024-03-29T03:00:54;2.33;;;0.90;;
53959;SDS011;39866;48.638;-2.020;2024-03-29T03:03:20;2.25;;;0.88;;
53959;SDS011;39866;48.638;-2.020;2024-03-29T03:05:45;2.53;;;0.90;;
53959;SDS011;39866;48.638;-2.020;2024-03-29T03:08:10;1.05;;;0.70;;
53959;SDS011;39866;48.638;-2.020;2024-03-29T03:10:54;1.35;;;0.80;;
53959;SDS011;39866;48.638;-2.020;2024-03-29T03:13:26;2.80;;;1.15;;
53959;SDS011;39866;48.638;-2.020;2024-03-29T03:15:53;1.88;;;0.75;;
53959;SDS011;39866;48.638;-2.020;2024-03-29T03:18:18;1.20;;;0.50;;
53959;SDS011;39866;48.638;-2.020;2024-03-29T03:20:49;1.63;;;0.70;;
53959;SDS011;39866;48.638;-2.020;2024-03-29T03:23:16;1.52;;;0.82;;
53959;SDS011;39866;48.638;-2.020;2024-03-29T03:25:41;2.08;;;0.68;;
53959;SDS011;39866;48.638;-2.020;2024-03-29T03:28:07;1.88;;;0.85;;
53959;SDS011;39866;48.638;-2.020;2024-03-29T03:30:32;1.08;;;0.60;;
53959;SDS011;39866;48.638;-2.020;2024-03-29T03:32:57;1.83;;;0.90;;
53959;SDS011;39866;48.638;-2.020;2024-03-29T03:35:23;2.85;;;1.02;;
53959;SDS011;39866;48.638;-2.020;2024-03-29T03:37:48;2.17;;;1.08;;
53959;SDS011;39866;48.638;-2.020;2024-03-29T03:40:14;0.88;;;0.70;;
53959;SDS011;39866;48.638;-2.020;2024-03-29T03:42:39;1.23;;;0.73;;
53959;SDS011;39866;48.638;-2.020;2024-03-29T03:45:05;1.75;;;0.95;;
53959;SDS011;39866;48.638;-2.020;2024-03-29T03:47:31;1.48;;;0.80;;
53959;SDS011;39866;48.638;-2.020;2024-03-29T03:49:56;3.08;;;1.05;;
53959;SDS011;39866;48.638;-2.020;2024-03-29T03:52:22;5.07;;;1.60;;
53959;SDS011;39866;48.638;-2.020;2024-03-29T03:54:47;2.95;;;1.20;;
53959;SDS011;39866;48.638;-2.020;2024-03-29T03:57:12;1.63;;;0.77;;
53959;SDS011;39866;48.638;-2.020;2024-03-29T03:59:38;1.58;;;1.10;;
53959;SDS011;39866;48.638;-2.020;2024-03-29T04:02:03;1.40;;;0.70;;
53959;SDS011;39866;48.638;-2.020;2024-03-29T04:04:28;2.22;;;1.00;;
53959;SDS011;39866;48.638;-2.020;2024-03-29T04:06:54;2.55;;;1.13;;
53959;SDS011;39866;48.638;-2.020;2024-03-29T04:09:19;1.52;;;0.60;;
53959;SDS011;39866;48.638;-2.020;2024-03-29T04:11:44;2.22;;;0.90;;
53959;SDS011;39866;48.638;-2.020;2024-03-29T04:14:10;1.88;;;0.70;;
53959;SDS011;39866;48.638;-2.020;2024-03-29T04:16:35;1.35;;;0.70;;
53959;SDS011;39866;48.638;-2.020;2024-03-29T04:19:00;2.08;;;0.80;;
53959;SDS011;39866;48.638;-2.020;2024-03-29T04:21:26;2.47;;;0.95;;
53959;SDS011;39866;48.638;-2.020;2024-03-29T04:23:51;3.28;;;1.13;;
53959;SDS011;39866;48.638;-2.020;2024-03-29T04:26:17;4.45;;;1.52;;
53959;SDS011;39866;48.638;-2.020;2024-03-29T04:28:42;2.40;;;0.70;;
53959;SDS011;39866;48.638;-2.020;2024-03-29T04:31:07;3.40;;;1.48;;
53959;SDS011;39866;48.638;-2.020;2024-03-29T04:33:33;1.70;;;0.60;;
53959;SDS011;39866;48.638;-2.020;2024-03-29T04:35:59;3.10;;;1.20;;
53959;SDS011;39866;48.638;-2.020;2024-03-29T04:38:27;2.00;;;0.90;;
53959;SDS011;39866;48.638;-2.020;2024-03-29T04:40:53;2.55;;;1.25;;
53959;SDS011;39866;48.638;-2.020;2024-03-29T04:43:26;1.65;;;0.70;;
53959;SDS011;39866;48.638;-2.020;2024-03-29T04:46:09;2.65;;;1.00;;
53959;SDS011;39866;48.638;-2.020;2024-03-29T04:48:36;1.73;;;0.93;;
53959;SDS011;39866;48.638;-2.020;2024-03-29T04:51:02;5.15;;;1.50;;
53959;SDS011;39866;48.638;-2.020;2024-03-29T04:53:28;2.38;;;0.80;;
53959;SDS011;39866;48.638;-2.020;2024-03-29T04:55:56;1.25;;;0.60;;
53959;SDS011;39866;48.638;-2.020;2024-03-29T04:58:23;4.90;;;1.65;;
53959;SDS011;39866;48.638;-2.020;2024-03-29T05:00:49;2.00;;;0.90;;
53959;SDS011;39866;48.638;-2.020;2024-03-29T05:03:18;2.70;;;0.95;;
53959;SDS011;39866;48.638;-2.020;2024-03-29T05:05:44;2.30;;;1.00;;
53959;SDS011;39866;48.638;-2.020;2024-03-29T05:08:10;3.85;;;1.10;;
53959;SDS011;39866;48.638;-2.020;2024-03-29T05:10:35;2.83;;;1.02;;
53959;SDS011;39866;48.638;-2.020;2024-03-29T05:13:01;2.88;;;1.10;;
53959;SDS011;39866;48.638;-2.020;2024-03-29T05:15:27;2.42;;;1.02;;
53959;SDS011;39866;48.638;-2.020;2024-03-29T05:17:52;2.45;;;1.08;;
53959;SDS011;39866;48.638;-2.020;2024-03-29T05:20:18;3.22;;;1.08;;
53959;SDS011;39866;48.638;-2.020;2024-03-29T05:22:44;3.42;;;1.17;;
53959;SDS011;39866;48.638;-2.020;2024-03-29T05:25:09;2.47;;;1.00;;
53959;SDS011;39866;48.638;-2.020;2024-03-29T05:27:35;4.03;;;1.50;;
53959;SDS011;39866;48.638;-2.020;2024-03-29T05:30:00;2.15;;;1.00;;
53959;SDS011;39866;48.638;-2.020;2024-03-29T05:32:27;2.63;;;0.98;;
53959;SDS011;39866;48.638;-2.020;2024-03-29T05:34:53;3.83;;;1.50;;
53959;SDS011;39866;48.638;-2.020;2024-03-29T05:37:19;3.42;;;1.30;;
53959;SDS011;39866;48.638;-2.020;2024-03-29T05:39:44;4.93;;;1.88;;
53959;SDS011;39866;48.638;-2.020;2024-03-29T05:42:09;2.50;;;1.00;;
53959;SDS011;39866;48.638;-2.020;2024-03-29T05:44:35;3.17;;;1.52;;
53959;SDS011;39866;48.638;-2.020;2024-03-29T05:47:01;2.67;;;1.15;;
53959;SDS011;39866;48.638;-2.020;2024-03-29T05:49:29;3.53;;;1.25;;
53959;SDS011;39866;48.638;-2.020;2024-03-29T05:51:55;3.33;;;1.38;;
53959;SDS011;39866;48.638;-2.020;2024-03-29T05:54:20;3.40;;;1.50;;
53959;SDS011;39866;48.638;-2.020;2024-03-29T05:56:47;3.08;;;1.40;;
53959;SDS011;39866;48.638;-2.020;2024-03-29T05:59:13;2.72;;;1.33;;
53959;SDS011;39866;48.638;-2.020;2024-03-29T06:01:38;4.15;;;1.73;;
53959;SDS011;39866;48.638;-2.020;2024-03-29T06:04:03;3.00;;;1.45;;
53959;SDS011;39866;48.638;-2.020;2024-03-29T06:06:29;3.80;;;1.67;;
53959;SDS011;39866;48.638;-2.020;2024-03-29T06:08:55;2.78;;;1.27;;
53959;SDS011;39866;48.638;-2.020;2024-03-29T06:11:20;3.05;;;1.20;;
53959;SDS011;39866;48.638;-2.020;2024-03-29T06:13:45;2.75;;;1.33;;
53959;SDS011;39866;48.638;-2.020;2024-03-29T06:16:19;3.05;;;1.30;;
53959;SDS011;39866;48.638;-2.020;2024-03-29T06:19:05;3.25;;;1.40;;
53959;SDS011;39866;48.638;-2.020;2024-03-29T06:21:30;2.15;;;1.40;;
53959;SDS011;39866;48.638;-2.020;2024-03-29T06:24:03;3.90;;;1.73;;
53959;SDS011;39866;48.638;-2.020;2024-03-29T06:26:32;2.65;;;1.15;;
53959;SDS011;39866;48.638;-2.020;2024-03-29T06:28:58;2.97;;;1.50;;
53959;SDS011;39866;48.638;-2.020;2024-03-29T06:31:23;2.55;;;1.10;;
53959;SDS011;39866;48.638;-2.020;2024-03-29T06:33:49;2.78;;;1.38;;
53959;SDS011;39866;48.638;-2.020;2024-03-29T06:36:14;2.25;;;1.10;;
53959;SDS011;39866;48.638;-2.020;2024-03-29T06:38:39;2.22;;;1.20;;
53959;SDS011;39866;48.638;-2.020;2024-03-29T06:41:05;2.92;;;1.40;;
53959;SDS011;39866;48.638;-2.020;2024-03-29T06:43:30;5.72;;;2.65;;
53959;SDS011;39866;48.638;-2.020;2024-03-29T06:45:56;2.70;;;1.20;;
53959;SDS011;39866;48.638;-2.020;2024-03-29T06:48:22;4.00;;;1.77;;
53959;SDS011;39866;48.638;-2.020;2024-03-29T06:50:48;4.32;;;1.70;;
53959;SDS011;39866;48.638;-2.020;2024-03-29T06:53:14;5.20;;;2.00;;
53959;SDS011;39866;48.638;-2.020;2024-03-29T06:55:40;3.30;;;1.38;;
53959;SDS011;39866;48.638;-2.020;2024-03-29T06:58:05;3.85;;;1.50;;
53959;SDS011;39866;48.638;-2.020;2024-03-29T07:00:31;3.35;;;1.60;;
53959;SDS011;39866;48.638;-2.020;2024-03-29T07:02:56;3.85;;;1.50;;
53959;SDS011;39866;48.638;-2.020;2024-03-29T07:05:21;2.92;;;1.30;;
53959;SDS011;39866;48.638;-2.020;2024-03-29T07:07:48;4.82;;;1.67;;
53959;SDS011;39866;48.638;-2.020;2024-03-29T07:10:13;2.78;;;1.23;;
53959;SDS011;39866;48.638;-2.020;2024-03-29T07:12:38;5.03;;;1.83;;
53959;SDS011;39866;48.638;-2.020;2024-03-29T07:15:04;4.32;;;1.55;;
53959;SDS011;39866;48.638;-2.020;2024-03-29T07:17:30;3.45;;;1.40;;
53959;SDS011;39866;48.638;-2.020;2024-03-29T07:19:55;5.65;;;2.08;;
53959;SDS011;39866;48.638;-2.020;2024-03-29T07:22:20;3.92;;;1.45;;
53959;SDS011;39866;48.638;-2.020;2024-03-29T07:24:46;3.65;;;1.40;;
53959;SDS011;39866;48.638;-2.020;2024-03-29T07:27:11;2.28;;;1.35;;
53959;SDS011;39866;48.638;-2.020;2024-03-29T07:29:39;4.47;;;1.50;;
53959;SDS011;39866;48.638;-2.020;2024-03-29T07:32:05;4.20;;;1.50;;
53959;SDS011;39866;48.638;-2.020;2024-03-29T07:34:30;4.38;;;1.73;;
53959;SDS011;39866;48.638;-2.020;2024-03-29T07:36:56;3.95;;;1.67;;
53959;SDS011;39866;48.638;-2.020;2024-03-29T07:39:21;3.10;;;1.73;;
53959;SDS011;39866;48.638;-2.020;2024-03-29T07:41:47;6.18;;;2.42;;
53959;SDS011;39866;48.638;-2.020;2024-03-29T07:44:13;4.18;;;2.00;;
53959;SDS011;39866;48.638;-2.020;2024-03-29T07:46:38;4.13;;;1.85;;
53959;SDS011;39866;48.638;-2.020;2024-03-29T07:49:05;5.18;;;1.88;;
53959;SDS011;39866;48.638;-2.020;2024-03-29T07:51:30;3.65;;;1.80;;
53959;SDS011;39866;48.638;-2.020;2024-03-29T07:53:56;4.90;;;1.75;;
53959;SDS011;39866;48.638;-2.020;2024-03-29T07:56:22;4.57;;;1.70;;
53959;SDS011;39866;48.638;-2.020;2024-03-29T07:58:50;4.25;;;2.05;;
53959;SDS011;39866;48.638;-2.020;2024-03-29T08:01:19;4.50;;;1.90;;
53959;SDS011;39866;48.638;-2.020;2024-03-29T08:03:45;3.53;;;1.55;;
53959;SDS011;39866;48.638;-2.020;2024-03-29T08:06:10;5.00;;;2.20;;
53959;SDS011;39866;48.638;-2.020;2024-03-29T08:08:36;4.22;;;2.03;;
53959;SDS011;39866;48.638;-2.020;2024-03-29T08:11:01;2.83;;;1.75;;
53959;SDS011;39866;48.638;-2.020;2024-03-29T08:13:26;4.68;;;2.10;;
53959;SDS011;39866;48.638;-2.020;2024-03-29T08:15:59;5.93;;;2.40;;
53959;SDS011;39866;48.638;-2.020;2024-03-29T08:18:25;5.07;;;2.13;;
53959;SDS011;39866;48.638;-2.020;2024-03-29T08:20:51;4.85;;;1.90;;
53959;SDS011;39866;48.638;-2.020;2024-03-29T08:23:17;4.65;;;2.33;;
53959;SDS011;39866;48.638;-2.020;2024-03-29T08:25:42;4.15;;;1.88;;
53959;SDS011;39866;48.638;-2.020;2024-03-29T08:28:07;5.05;;;2.17;;
53959;SDS011;39866;48.638;-2.020;2024-03-29T08:30:33;4.50;;;2.00;;
53959;SDS011;39866;48.638;-2.020;2024-03-29T08:33:01;5.75;;;2.42;;
53959;SDS011;39866;48.638;-2.020;2024-03-29T08:35:28;5.35;;;2.25;;
53959;SDS011;39866;48.638;-2.020;2024-03-29T08:37:57;5.00;;;2.20;;
53959;SDS011;39866;48.638;-2.020;2024-03-29T08:40:23;6.55;;;2.53;;
53959;SDS011;39866;48.638;-2.020;2024-03-29T08:42:49;5.03;;;2.80;;
53959;SDS011;39866;48.638;-2.020;2024-03-29T08:45:15;5.85;;;2.80;;
53959;SDS011;39866;48.638;-2.020;2024-03-29T08:47:40;5.85;;;2.67;;
53959;SDS011;39866;48.638;-2.020;2024-03-29T08:50:05;5.38;;;2.65;;
53959;SDS011;39866;48.638;-2.020;2024-03-29T08:52:31;4.32;;;2.10;;
53959;SDS011;39866;48.638;-2.020;2024-03-29T08:54:56;5.10;;;2.70;;
53959;SDS011;39866;48.638;-2.020;2024-03-29T08:57:22;5.70;;;2.67;;
53959;SDS011;39866;48.638;-2.020;2024-03-29T08:59:47;3.72;;;2.30;;
53959;SDS011;39866;48.638;-2.020;2024-03-29T09:02:12;4.20;;;2.38;;
53959;SDS011;39866;48.638;-2.020;2024-03-29T09:04:38;5.30;;;2.70;;
53959;SDS011;39866;48.638;-2.020;2024-03-29T09:07:03;4.90;;;2.55;;
53959;SDS011;39866;48.638;-2.020;2024-03-29T09:09:29;4.75;;;2.40;;
53959;SDS011;39866;48.638;-2.020;2024-03-29T09:11:56;6.30;;;2.92;;
53959;SDS011;39866;48.638;-2.020;2024-03-29T09:14:21;5.47;;;2.47;;
53959;SDS011;39866;48.638;-2.020;2024-03-29T09:16:46;7.07;;;2.85;;
53959;SDS011;39866;48.638;-2.020;2024-03-29T09:19:12;6.68;;;2.63;;
53959;SDS011;39866;48.638;-2.020;2024-03-29T09:21:39;5.38;;;2.42;;
53959;SDS011;39866;48.638;-2.020;2024-03-29T09:24:04;5.45;;;2.83;;
53959;SDS011;39866;48.638;-2.020;2024-03-29T09:26:30;3.88;;;2.25;;
53959;SDS011;39866;48.638;-2.020;2024-03-29T09:28:56;5.10;;;2.67;;
53959;SDS011;39866;48.638;-2.020;2024-03-29T09:31:21;6.13;;;3.05;;
53959;SDS011;39866;48.638;-2.020;2024-03-29T09:33:47;5.72;;;2.65;;
53959;SDS011;39866;48.638;-2.020;2024-03-29T09:36:17;4.55;;;2.35;;
53959;SDS011;39866;48.638;-2.020;2024-03-29T09:38:43;5.15;;;2.58;;
53959;SDS011;39866;48.638;-2.020;2024-03-29T09:41:14;4.05;;;2.70;;
53959;SDS011;39866;48.638;-2.020;2024-03-29T09:43:44;5.85;;;3.40;;
53959;SDS011;39866;48.638;-2.020;2024-03-29T09:46:11;7.47;;;3.65;;
53959;SDS011;39866;48.638;-2.020;2024-03-29T09:48:38;4.68;;;2.83;;
53959;SDS011;39866;48.638;-2.020;2024-03-29T09:51:05;5.72;;;3.13;;
53959;SDS011;39866;48.638;-2.020;2024-03-29T09:53:34;3.38;;;2.40;;
53959;SDS011;39866;48.638;-2.020;2024-03-29T09:56:02;5.43;;;2.80;;
53959;SDS011;39866;48.638;-2.020;2024-03-29T09:58:29;4.55;;;2.65;;
53959;SDS011;39866;48.638;-2.020;2024-03-29T10:00:55;4.57;;;2.72;;
53959;SDS011;39866;48.638;-2.020;2024-03-29T10:03:21;4.50;;;3.05;;
53959;SDS011;39866;48.638;-2.020;2024-03-29T10:05:48;3.90;;;3.20;;
53959;SDS011;39866;48.638;-2.020;2024-03-29T10:08:15;3.60;;;3.00;;
53959;SDS011;39866;48.638;-2.020;2024-03-29T10:10:41;4.72;;;3.05;;
53959;SDS011;39866;48.638;-2.020;2024-03-29T10:13:07;5.00;;;3.10;;
53959;SDS011;39866;48.638;-2.020;2024-03-29T10:15:33;5.40;;;3.42;;
53959;SDS011;39866;48.638;-2.020;2024-03-29T10:18:02;6.93;;;3.47;;
53959;SDS011;39866;48.638;-2.020;2024-03-29T10:20:28;4.20;;;3.35;;
53959;SDS011;39866;48.638;-2.020;2024-03-29T10:22:53;3.50;;;3.00;;
53959;SDS011;39866;48.638;-2.020;2024-03-29T10:25:20;3.55;;;2.88;;
53959;SDS011;39866;48.638;-2.020;2024-03-29T10:27:46;3.85;;;3.08;;
53959;SDS011;39866;48.638;-2.020;2024-03-29T10:30:11;4.32;;;3.42;;
53959;SDS011;39866;48.638;-2.020;2024-03-29T10:32:42;3.58;;;3.10;;
53959;SDS011;39866;48.638;-2.020;2024-03-29T10:35:08;3.28;;;2.90;;
53959;SDS011;39866;48.638;-2.020;2024-03-29T10:37:34;2.92;;;2.60;;
53959;SDS011;39866;48.638;-2.020;2024-03-29T10:40:10;3.53;;;3.15;;
53959;SDS011;39866;48.638;-2.020;2024-03-29T10:42:40;4.63;;;3.28;;
53959;SDS011;39866;48.638;-2.020;2024-03-29T10:45:06;2.60;;;2.40;;
53959;SDS011;39866;48.638;-2.020;2024-03-29T10:47:33;2.85;;;2.60;;
53959;SDS011;39866;48.638;-2.020;2024-03-29T10:49:59;2.63;;;2.40;;
53959;SDS011;39866;48.638;-2.020;2024-03-29T10:52:25;3.10;;;2.85;;
53959;SDS011;39866;48.638;-2.020;2024-03-29T10:54:51;3.45;;;3.15;;
53959;SDS011;39866;48.638;-2.020;2024-03-29T10:57:22;3.22;;;2.92;;
53959;SDS011;39866;48.638;-2.020;2024-03-29T11:00:02;3.13;;;2.85;;
53959;SDS011;39866;48.638;-2.020;2024-03-29T11:05:16;3.20;;;2.75;;
53959;SDS011;39866;48.638;-2.020;2024-03-29T11:07:42;4.50;;;3.17;;
53959;SDS011;39866;48.638;-2.020;2024-03-29T11:10:15;3.40;;;3.10;;
53959;SDS011;39866;48.638;-2.020;2024-03-29T11:13:03;2.88;;;2.65;;
53959;SDS011;39866;48.638;-2.020;2024-03-29T11:15:37;2.90;;;2.70;;
53959;SDS011;39866;48.638;-2.020;2024-03-29T11:18:03;3.55;;;3.05;;
53959;SDS011;39866;48.638;-2.020;2024-03-29T11:20:29;3.72;;;2.72;;
53959;SDS011;39866;48.638;-2.020;2024-03-29T11:23:21;2.95;;;2.75;;
53959;SDS011;39866;48.638;-2.020;2024-03-29T11:25:48;2.83;;;2.50;;
53959;SDS011;39866;48.638;-2.020;2024-03-29T11:28:22;3.53;;;3.22;;
53959;SDS011;39866;48.638;-2.020;2024-03-29T11:30:49;3.45;;;3.13;;
53959;SDS011;39866;48.638;-2.020;2024-03-29T11:36:12;4.20;;;3.03;;
53959;SDS011;39866;48.638;-2.020;2024-03-29T11:38:41;5.43;;;3.70;;
53959;SDS011;39866;48.638;-2.020;2024-03-29T11:41:12;6.13;;;3.28;;
53959;SDS011;39866;48.638;-2.020;2024-03-29T11:43:39;5.10;;;3.28;;
53959;SDS011;39866;48.638;-2.020;2024-03-29T11:46:07;6.40;;;3.55;;
53959;SDS011;39866;48.638;-2.020;2024-03-29T11:48:33;5.63;;;3.05;;
53959;SDS011;39866;48.638;-2.020;2024-03-29T11:51:00;5.07;;;3.33;;
53959;SDS011;39866;48.638;-2.020;2024-03-29T11:53:28;4.07;;;2.88;;
53959;SDS011;39866;48.638;-2.020;2024-03-29T11:55:54;6.07;;;3.40;;
53959;SDS011;39866;48.638;-2.020;2024-03-29T11:58:21;7.10;;;3.42;;
53959;SDS011;39866;48.638;-2.020;2024-03-29T12:00:47;6.07;;;3.28;;
53959;SDS011;39866;48.638;-2.020;2024-03-29T12:03:14;6.50;;;3.42;;
53959;SDS011;39866;48.638;-2.020;2024-03-29T12:05:41;4.60;;;2.95;;
53959;SDS011;39866;48.638;-2.020;2024-03-29T12:08:07;5.20;;;3.00;;
53959;SDS011;39866;48.638;-2.020;2024-03-29T12:10:34;5.22;;;3.10;;
53959;SDS011;39866;48.638;-2.020;2024-03-29T12:13:01;7.20;;;3.55;;
53959;SDS011;39866;48.638;-2.020;2024-03-29T12:15:29;7.07;;;3.60;;
53959;SDS011;39866;48.638;-2.020;2024-03-29T12:17:56;5.95;;;3.30;;
53959;SDS011;39866;48.638;-2.020;2024-03-29T12:20:23;6.28;;;3.40;;
53959;SDS011;39866;48.638;-2.020;2024-03-29T12:22:48;6.32;;;3.00;;
53959;SDS011;39866;48.638;-2.020;2024-03-29T12:25:14;7.07;;;3.10;;
53959;SDS011;39866;48.638;-2.020;2024-03-29T12:27:42;9.15;;;3.70;;
53959;SDS011;39866;48.638;-2.020;2024-03-29T12:30:08;7.10;;;3.13;;
53959;SDS011;39866;48.638;-2.020;2024-03-29T12:32:34;8.80;;;3.30;;
53959;SDS011;39866;48.638;-2.020;2024-03-29T12:37:35;8.18;;;3.45;;
53959;SDS011;39866;48.638;-2.020;2024-03-29T12:40:01;8.15;;;3.33;;
53959;SDS011;39866;48.638;-2.020;2024-03-29T12:42:35;6.28;;;3.60;;
53959;SDS011;39866;48.638;-2.020;2024-03-29T12:45:00;6.72;;;3.20;;
53959;SDS011;39866;48.638;-2.020;2024-03-29T12:47:26;6.63;;;3.58;;
53959;SDS011;39866;48.638;-2.020;2024-03-29T12:49:51;5.13;;;3.63;;
53959;SDS011;39866;48.638;-2.020;2024-03-29T12:52:18;7.57;;;3.53;;
53959;SDS011;39866;48.638;-2.020;2024-03-29T12:54:45;8.93;;;3.50;;
53959;SDS011;39866;48.638;-2.020;2024-03-29T12:57:10;8.00;;;3.60;;
53959;SDS011;39866;48.638;-2.020;2024-03-29T12:59:36;7.85;;;4.07;;
53959;SDS011;39866;48.638;-2.020;2024-03-29T13:02:02;6.95;;;3.20;;
53959;SDS011;39866;48.638;-2.020;2024-03-29T13:04:29;7.80;;;4.25;;
53959;SDS011;39866;48.638;-2.020;2024-03-29T13:06:55;9.52;;;3.58;;
53959;SDS011;39866;48.638;-2.020;2024-03-29T13:09:20;6.70;;;3.08;;
53959;SDS011;39866;48.638;-2.020;2024-03-29T13:11:46;6.55;;;3.60;;
53959;SDS011;39866;48.638;-2.020;2024-03-29T13:14:11;3.55;;;2.95;;
53959;SDS011;39866;48.638;-2.020;2024-03-29T13:16:37;6.97;;;3.13;;
53959;SDS011;39866;48.638;-2.020;2024-03-29T13:19:02;4.75;;;3.35;;
53959;SDS011;39866;48.638;-2.020;2024-03-29T13:21:28;4.03;;;2.72;;
53959;SDS011;39866;48.638;-2.020;2024-03-29T13:23:54;4.35;;;2.80;;
53959;SDS011;39866;48.638;-2.020;2024-03-29T13:26:19;4.93;;;3.13;;
53959;SDS011;39866;48.638;-2.020;2024-03-29T13:28:45;8.10;;;3.90;;
53959;SDS011;39866;48.638;-2.020;2024-03-29T13:31:10;3.47;;;2.80;;
53959;SDS011;39866;48.638;-2.020;2024-03-29T13:33:35;5.25;;;2.95;;
53959;SDS011;39866;48.638;-2.020;2024-03-29T13:36:01;8.57;;;3.13;;
53959;SDS011;39866;48.638;-2.020;2024-03-29T13:38:26;5.57;;;2.83;;
53959;SDS011;39866;48.638;-2.020;2024-03-29T13:40:52;4.93;;;3.00;;
53959;SDS011;39866;48.638;-2.020;2024-03-29T13:43:18;3.72;;;2.45;;
53959;SDS011;39866;48.638;-2.020;2024-03-29T13:45:44;5.00;;;2.95;;
53959;SDS011;39866;48.638;-2.020;2024-03-29T13:48:09;6.57;;;3.08;;
53959;SDS011;39866;48.638;-2.020;2024-03-29T13:50:35;5.72;;;3.00;;
53959;SDS011;39866;48.638;-2.020;2024-03-29T13:53:00;5.40;;;2.58;;
53959;SDS011;39866;48.638;-2.020;2024-03-29T13:55:25;4.78;;;3.00;;
53959;SDS011;39866;48.638;-2.020;2024-03-29T13:57:52;5.07;;;2.85;;
53959;SDS011;39866;48.638;-2.020;2024-03-29T14:00:20;5.25;;;3.20;;
53959;SDS011;39866;48.638;-2.020;2024-03-29T14:02:46;4.28;;;2.80;;
53959;SDS011;39866;48.638;-2.020;2024-03-29T14:05:11;4.45;;;2.60;;
53959;SDS011;39866;48.638;-2.020;2024-03-29T14:07:37;4.30;;;2.53;;
53959;SDS011;39866;48.638;-2.020;2024-03-29T14:10:03;4.90;;;2.50;;
53959;SDS011;39866;48.638;-2.020;2024-03-29T14:12:31;4.72;;;2.67;;
53959;SDS011;39866;48.638;-2.020;2024-03-29T14:14:56;5.43;;;2.88;;
53959;SDS011;39866;48.638;-2.020;2024-03-29T14:17:22;6.00;;;2.85;;
53959;SDS011;39866;48.638;-2.020;2024-03-29T14:19:47;4.80;;;2.75;;
53959;SDS011;39866;48.638;-2.020;2024-03-29T14:22:14;5.25;;;2.67;;
53959;SDS011;39866;48.638;-2.020;2024-03-29T14:24:48;4.68;;;2.30;;
53959;SDS011;39866;48.638;-2.020;2024-03-29T14:27:13;5.47;;;2.30;;
53959;SDS011;39866;48.638;-2.020;2024-03-29T14:29:39;3.20;;;2.30;;
53959;SDS011;39866;48.638;-2.020;2024-03-29T14:32:04;5.47;;;2.45;;
53959;SDS011;39866;48.638;-2.020;2024-03-29T14:34:30;6.43;;;2.70;;
53959;SDS011;39866;48.638;-2.020;2024-03-29T14:37:03;5.60;;;2.65;;